Hinkle, Kentucky
Current Conditions -  °F | °C
As of 6:53 PM on Sunday 25 Jan 2015 (Local Time) from KLOZ Reporting Station
Broken Clouds Broken Clouds  
Wind Chill: 47°   Ceiling: 9000
Heat Index: 47°   Visibility: 10mi
Dew Point: 30°   Wind: 3mph
Humidity: 52%   Direction: 120°ESE
Pressure: 29.66"   Gusts: NA
Location:  36.91°N, 83.82°W
Report Text: KLOZ 252353Z AUTO 12003KT 10SM SCT070 BKN090 08/M01 A2966 RMK AO2 SLP047 T00831011 10111 20083 55002
Loading
Personal Weather Stations






























Interactive Weather Map New forecast layout! Learn more

10-Day Weather Forecast

Advertisements
Track Severe Weather on mobile